createdAt,value
2018-01-15T00:01:53.588Z,21.20
2018-01-15T00:04:21.146Z,19.87
2018-01-15T00:06:48.711Z,21.07
2018-01-15T00:09:16.256Z,20.53
2018-01-15T00:11:43.819Z,20.80
2018-01-15T00:14:11.359Z,21.80
2018-01-15T00:16:38.918Z,20.27
2018-01-15T00:19:07.252Z,20.50
2018-01-15T00:21:34.816Z,21.77
2018-01-15T00:24:03.128Z,22.67
2018-01-15T00:26:30.691Z,20.67
2018-01-15T00:28:59.006Z,20.20
2018-01-15T00:31:26.554Z,20.70
2018-01-15T00:33:54.108Z,21.30
2018-01-15T00:36:21.663Z,21.50
2018-01-15T00:38:49.220Z,20.30
2018-01-15T00:41:16.777Z,21.70
2018-01-15T00:43:44.344Z,20.17
2018-01-15T00:46:11.887Z,18.67
2018-01-15T00:48:40.215Z,21.13
2018-01-15T00:51:07.759Z,20.70
2018-01-15T00:53:35.347Z,21.20
2018-01-15T00:56:03.664Z,18.97
2018-01-15T00:58:31.982Z,21.33
2018-01-15T01:00:59.556Z,21.30
2018-01-15T01:03:27.124Z,21.90
2018-01-15T01:05:54.667Z,20.77
2018-01-15T01:08:22.224Z,21.50
2018-01-15T01:10:49.772Z,23.40
2018-01-15T01:13:18.094Z,20.97
2018-01-15T01:15:45.656Z,22.93
2018-01-15T01:18:13.955Z,20.30
2018-01-15T01:20:41.518Z,20.90
2018-01-15T01:23:09.064Z,21.73
2018-01-15T01:25:36.625Z,22.60
2018-01-15T01:28:04.940Z,22.37
2018-01-15T01:30:32.504Z,22.77
2018-01-15T01:33:00.839Z,22.33
2018-01-15T01:35:28.396Z,24.33
2018-01-15T01:37:56.699Z,23.80
2018-01-15T01:40:25.023Z,22.23
2018-01-15T01:42:52.571Z,23.40
2018-01-15T01:45:20.894Z,22.77
2018-01-15T01:47:48.439Z,22.50
2018-01-15T01:50:15.994Z,22.23
2018-01-15T01:52:43.526Z,23.90
2018-01-15T01:55:11.849Z,24.13
2018-01-15T01:57:39.393Z,22.30
2018-01-15T02:00:06.947Z,25.57
2018-01-15T02:02:34.484Z,21.80
2018-01-15T02:05:02.789Z,23.33
2018-01-15T02:07:31.119Z,22.80
2018-01-15T02:09:58.655Z,24.73
2018-01-15T02:12:26.996Z,22.77
2018-01-15T02:14:54.535Z,22.70
2018-01-15T02:17:22.096Z,25.33
2018-01-15T02:19:49.644Z,24.43
2018-01-15T02:22:17.215Z,22.67
2018-01-15T02:24:45.518Z,24.10
2018-01-15T02:27:13.843Z,21.80
2018-01-15T02:29:41.382Z,25.20
2018-01-15T02:32:08.939Z,22.03
2018-01-15T02:34:36.496Z,25.10
2018-01-15T02:37:04.055Z,25.80
2018-01-15T02:39:31.611Z,24.93
2018-01-15T02:41:59.170Z,24.10
2018-01-15T02:44:26.716Z,24.47
2018-01-15T02:46:54.277Z,24.73
2018-01-15T02:49:22.600Z,25.30
2018-01-15T02:51:50.156Z,24.27
2018-01-15T02:54:18.474Z,25.80
2018-01-15T02:56:46.801Z,25.27
2018-01-15T02:59:14.338Z,25.83
2018-01-15T03:01:41.923Z,25.27
2018-01-15T03:04:09.473Z,25.70
2018-01-15T03:06:37.006Z,24.47
2018-01-15T03:09:05.344Z,24.77
2018-01-15T03:11:32.884Z,26.80
2018-01-15T03:14:01.220Z,24.13
2018-01-15T03:16:28.762Z,27.30
2018-01-15T03:18:56.324Z,27.70
2018-01-15T03:21:23.904Z,25.30
2018-01-15T03:23:51.485Z,27.03
2018-01-15T03:26:19.027Z,25.43
2018-01-15T03:28:46.592Z,26.20
2018-01-15T03:31:14.905Z,25.83
2018-01-15T03:33:43.230Z,25.80
2018-01-15T03:36:10.767Z,24.43
2018-01-15T03:38:38.331Z,27.80
2018-01-15T03:41:05.880Z,27.13
2018-01-15T03:43:33.447Z,26.17
2018-01-15T03:46:00.996Z,25.73
2018-01-15T03:48:28.559Z,23.73
2018-01-15T03:50:56.863Z,25.40
2018-01-15T03:53:24.427Z,25.23
2018-01-15T03:55:51.976Z,25.87
2018-01-15T03:58:20.288Z,25.20
2018-01-15T04:00:47.855Z,26.00
2018-01-15T04:03:16.157Z,25.80
2018-01-15T04:05:44.487Z,25.07
2018-01-15T04:08:12.024Z,28.57
2018-01-15T04:10:39.579Z,26.17
2018-01-15T04:13:07.124Z,27.30
2018-01-15T04:15:35.450Z,26.77
2018-01-15T04:18:02.978Z,27.90
2018-01-15T04:20:30.540Z,25.20
2018-01-15T04:22:58.088Z,23.83
2018-01-15T04:25:25.647Z,25.77
2018-01-15T04:27:53.951Z,24.53
2018-01-15T04:30:22.275Z,26.27
2018-01-15T04:32:49.824Z,27.90
2018-01-15T04:35:17.384Z,26.50
2018-01-15T04:37:44.924Z,26.97
2018-01-15T04:40:12.483Z,26.57
2018-01-15T04:42:40.791Z,26.57
2018-01-15T04:45:09.114Z,26.73
2018-01-15T04:47:36.659Z,28.10
2018-01-15T04:50:04.205Z,25.77
2018-01-15T04:52:31.784Z,27.60
2018-01-15T04:54:59.339Z,25.73
2018-01-15T04:57:27.669Z,25.93
2018-01-15T04:59:55.232Z,28.43
2018-01-15T05:02:22.806Z,28.00
2018-01-15T05:04:51.113Z,25.80
2018-01-15T05:07:18.672Z,26.80
2018-01-15T05:09:46.282Z,27.40
2018-01-15T05:12:13.844Z,25.93
2018-01-15T05:14:41.388Z,28.57
2018-01-15T05:17:08.950Z,27.10
2018-01-15T05:19:36.492Z,27.03
2018-01-15T05:22:04.068Z,28.10
2018-01-15T05:24:31.608Z,25.83
2018-01-15T05:26:59.166Z,26.80
2018-01-15T05:29:28.112Z,27.10
2018-01-15T05:31:55.724Z,27.60
2018-01-15T05:34:24.067Z,26.80
2018-01-15T05:36:51.632Z,26.80
2018-01-15T05:39:19.944Z,25.83
2018-01-15T05:41:48.256Z,27.97
2018-01-15T05:44:15.820Z,26.73
2018-01-15T05:46:43.359Z,28.50
2018-01-15T05:49:10.919Z,27.20
2018-01-15T05:51:38.461Z,26.50
2018-01-15T05:54:06.024Z,27.97
2018-01-15T05:56:34.331Z,28.70
2018-01-15T05:59:01.892Z,27.90
2018-01-15T06:01:29.431Z,26.70
2018-01-15T06:03:57.755Z,27.90
2018-01-15T06:06:25.299Z,29.47
2018-01-15T06:08:53.643Z,29.03
2018-01-15T06:11:21.182Z,28.50
2018-01-15T06:13:48.748Z,28.77
2018-01-15T06:16:17.059Z,27.20
2018-01-15T06:18:44.620Z,29.93
2018-01-15T06:21:12.169Z,29.00
2018-01-15T06:23:39.736Z,27.30
2018-01-15T06:26:08.053Z,28.60
2018-01-15T06:28:36.380Z,27.93
2018-01-15T06:31:03.925Z,27.50
2018-01-15T06:33:32.248Z,28.70
2018-01-15T06:35:59.788Z,29.43
2018-01-15T06:38:27.336Z,31.13
2018-01-15T06:40:54.929Z,29.90
2018-01-15T06:43:22.472Z,30.67
2018-01-15T06:45:50.807Z,27.83
2018-01-15T06:48:18.344Z,28.93
2018-01-15T06:50:46.671Z,26.30
2018-01-15T06:53:14.218Z,30.57
2018-01-15T06:55:41.783Z,29.70
2018-01-15T06:58:09.334Z,29.67
2018-01-15T07:00:36.900Z,28.50
2018-01-15T07:03:04.452Z,29.50
2018-01-15T07:05:32.020Z,29.80
2018-01-15T07:07:59.592Z,29.20
2018-01-15T07:10:27.161Z,28.87
2018-01-15T07:12:54.717Z,29.80
2018-01-15T07:15:23.043Z,31.30
2018-01-15T07:17:50.580Z,27.87
2018-01-15T07:20:18.147Z,28.13
2018-01-15T07:22:45.721Z,29.33
2018-01-15T07:25:13.285Z,29.73
2018-01-15T07:27:40.824Z,31.27
2018-01-15T07:30:09.198Z,30.80
2018-01-15T07:32:36.728Z,30.63
2018-01-15T07:35:05.071Z,28.50
2018-01-15T07:37:32.615Z,28.00
2018-01-15T07:40:00.204Z,28.33
2018-01-15T07:42:27.771Z,32.30
2018-01-15T07:44:56.090Z,31.27
2018-01-15T07:47:23.656Z,28.37
2018-01-15T07:49:51.967Z,29.17
2018-01-15T07:52:20.318Z,29.50
2018-01-15T07:54:47.855Z,32.43
2018-01-15T07:57:16.176Z,30.20
2018-01-15T07:59:43.716Z,28.73
2018-01-15T08:02:11.287Z,29.30
2018-01-15T08:04:38.818Z,30.53
2018-01-15T08:07:06.379Z,29.73
2018-01-15T08:09:34.696Z,30.93
2018-01-15T08:12:02.275Z,30.37
2018-01-15T08:14:30.588Z,29.57
2018-01-15T08:16:58.140Z,29.63
2018-01-15T08:19:25.702Z,31.00
2018-01-15T08:21:53.250Z,28.13
2018-01-15T08:24:20.815Z,30.57
2018-01-15T08:26:49.123Z,31.20
2018-01-15T08:29:16.708Z,27.50
2018-01-15T08:31:44.243Z,29.60
2018-01-15T08:34:11.808Z,31.90
2018-01-15T08:36:39.362Z,29.07
2018-01-15T08:39:06.935Z,28.83
2018-01-15T08:41:35.243Z,29.90
2018-01-15T08:44:02.808Z,30.03
2018-01-15T08:46:31.120Z,30.40
2018-01-15T08:48:59.451Z,29.80
2018-01-15T08:51:27.008Z,28.60
2018-01-15T08:53:55.330Z,29.07
2018-01-15T08:56:22.871Z,30.00
2018-01-15T08:58:50.464Z,29.10
2018-01-15T09:01:18.808Z,30.90
2018-01-15T09:03:46.369Z,29.20
2018-01-15T09:06:13.912Z,29.27
2018-01-15T09:08:41.476Z,28.50
2018-01-15T09:11:09.795Z,27.50
2018-01-15T09:13:37.344Z,27.87
2018-01-15T09:16:04.904Z,29.77
2018-01-15T09:18:32.448Z,28.43
2018-01-15T09:21:00.014Z,28.60
2018-01-15T09:23:28.336Z,28.40
2018-01-15T09:25:55.923Z,28.57
2018-01-15T09:28:23.459Z,30.17
2018-01-15T09:30:51.024Z,31.53
2018-01-15T09:33:19.336Z,28.90
2018-01-15T09:35:46.929Z,29.20
2018-01-15T09:38:14.476Z,30.20
2018-01-15T09:40:42.798Z,30.37
2018-01-15T09:43:10.368Z,26.73
2018-01-15T09:45:38.710Z,28.10
2018-01-15T09:48:06.254Z,27.43
2018-01-15T09:50:34.563Z,29.50
2018-01-15T09:53:02.897Z,27.80
2018-01-15T09:55:30.450Z,27.37
2018-01-15T09:57:58.044Z,27.47
2018-01-15T10:00:25.603Z,28.17
2018-01-15T10:02:53.159Z,26.63
2018-01-15T10:05:20.699Z,26.27
2018-01-15T10:07:49.500Z,29.57
2018-01-15T10:10:17.804Z,27.00
2018-01-15T10:12:46.128Z,26.93
2018-01-15T10:15:14.304Z,25.60
2018-01-15T10:17:42.639Z,26.20
2018-01-15T10:20:10.216Z,26.17
2018-01-15T10:22:37.786Z,25.77
2018-01-15T10:25:06.087Z,27.57
2018-01-15T10:27:34.414Z,25.40
2018-01-15T10:30:01.960Z,26.27
2018-01-15T10:32:30.288Z,27.37
2018-01-15T10:34:57.848Z,24.63
2018-01-15T10:37:26.158Z,26.33
2018-01-15T10:39:54.478Z,27.27
2018-01-15T10:42:22.020Z,24.90
2018-01-15T10:44:49.584Z,25.50
2018-01-15T10:47:17.119Z,24.07
2018-01-15T10:49:44.675Z,23.97
2018-01-15T10:52:12.222Z,24.50
2018-01-15T10:54:39.783Z,22.17
2018-01-15T10:57:07.325Z,24.30
2018-01-15T10:59:34.895Z,20.90
2018-01-15T11:02:02.435Z,20.13
2018-01-15T11:04:29.997Z,17.40
2018-01-15T11:06:57.544Z,19.60
2018-01-15T11:09:25.102Z,17.60
2018-01-15T11:11:52.651Z,17.13
2018-01-15T11:14:20.212Z,16.50
2018-01-15T11:16:47.764Z,16.60
2018-01-15T11:19:15.367Z,17.43
2018-01-15T11:21:42.915Z,15.97
2018-01-15T11:24:10.497Z,16.90
2018-01-15T11:26:38.063Z,16.53
2018-01-15T11:29:05.600Z,16.23
2018-01-15T11:31:33.160Z,16.60
2018-01-15T11:34:00.699Z,17.40
2018-01-15T11:36:29.028Z,16.23
2018-01-15T11:38:56.563Z,16.60
2018-01-15T11:41:24.111Z,16.80
2018-01-15T11:43:51.653Z,15.97
2018-01-15T11:46:19.975Z,15.80
2018-01-15T11:48:47.511Z,16.00
2018-01-15T11:51:15.069Z,15.30
2018-01-15T11:53:42.612Z,15.30
2018-01-15T11:56:10.915Z,15.10
2018-01-15T11:58:39.247Z,16.50
2018-01-15T12:01:06.784Z,15.57
2018-01-15T12:03:35.108Z,15.80
2018-01-15T12:06:02.644Z,16.60
2018-01-15T12:08:30.232Z,15.53
2018-01-15T12:10:57.771Z,14.80
2018-01-15T12:13:25.346Z,14.33
2018-01-15T12:15:52.882Z,14.10
2018-01-15T12:18:20.435Z,14.70
2018-01-15T12:20:47.967Z,15.03
2018-01-15T12:23:16.295Z,14.23
2018-01-15T12:25:43.861Z,14.40
2018-01-15T12:28:12.180Z,15.37
2018-01-15T12:30:39.749Z,14.40
2018-01-15T12:33:08.079Z,13.90
2018-01-15T12:35:35.618Z,13.90
2018-01-15T12:38:03.980Z,14.60
2018-01-15T12:40:31.531Z,13.23
2018-01-15T12:42:59.837Z,12.57
2018-01-15T12:45:27.404Z,12.73
2018-01-15T12:47:55.728Z,12.83
2018-01-15T12:50:23.300Z,11.97
2018-01-15T12:52:51.608Z,12.50
2018-01-15T12:55:19.174Z,12.90
2018-01-15T12:57:47.484Z,12.43
2018-01-15T13:00:15.831Z,13.77
2018-01-15T13:02:43.385Z,12.80
2018-01-15T13:05:10.942Z,11.50
2018-01-15T13:07:50.393Z,11.60
2018-01-15T13:10:17.956Z,12.70
2018-01-15T13:12:45.501Z,12.47
2018-01-15T13:15:13.057Z,12.73
2018-01-15T13:17:40.605Z,11.40
2018-01-15T13:20:08.933Z,12.10
2018-01-15T13:22:36.467Z,12.93
2018-01-15T13:25:04.027Z,11.67
2018-01-15T13:27:32.332Z,12.20
2018-01-15T13:30:00.683Z,12.37
2018-01-15T13:32:28.222Z,12.90
2018-01-15T13:34:56.560Z,12.70
2018-01-15T13:37:24.094Z,12.40
2018-01-15T13:39:52.423Z,12.03
2018-01-15T13:42:19.965Z,11.30
2018-01-15T13:44:47.508Z,12.47
2018-01-15T13:47:15.073Z,11.83
2018-01-15T13:49:42.603Z,11.90
2018-01-15T13:52:10.163Z,12.30
2018-01-15T13:54:37.709Z,10.80
2018-01-15T13:57:05.297Z,12.03
2018-01-15T13:59:33.608Z,11.93
2018-01-15T14:02:01.177Z,10.90
2018-01-15T14:04:29.481Z,11.27
2018-01-15T14:06:57.811Z,11.70
2018-01-15T14:09:25.343Z,12.70
2018-01-15T14:11:52.903Z,12.60
2018-01-15T14:14:20.443Z,10.67
2018-01-15T14:16:48.005Z,11.63
2018-01-15T14:19:16.307Z,10.13
2018-01-15T14:21:44.632Z,12.27
2018-01-15T14:24:12.171Z,10.17
2018-01-15T14:26:39.703Z,10.40
2018-01-15T14:29:07.263Z,10.53
2018-01-15T14:31:35.589Z,11.20
2018-01-15T14:34:03.183Z,12.00
2018-01-15T14:36:30.717Z,10.90
2018-01-15T14:38:58.279Z,10.23
2018-01-15T14:41:25.832Z,10.20
2018-01-15T14:43:53.386Z,11.23
2018-01-15T14:46:21.695Z,10.10
2018-01-15T14:48:50.027Z,10.27
2018-01-15T14:51:17.644Z,10.67
2018-01-15T14:53:46.009Z,10.37
2018-01-15T14:56:13.564Z,10.00
2018-01-15T14:58:41.889Z,11.07
2018-01-15T15:01:09.644Z,10.17
2018-01-15T15:03:37.951Z,11.13
2018-01-15T15:06:05.515Z,11.03
2018-01-15T15:08:33.115Z,11.07
2018-01-15T15:11:00.701Z,10.20
2018-01-15T15:15:55.806Z,10.77
2018-01-15T15:18:23.349Z,10.10
2018-01-15T15:20:50.902Z,9.87
2018-01-15T15:23:18.459Z,9.70
2018-01-15T15:25:46.018Z,10.57
2018-01-15T15:28:14.339Z,11.17
2018-01-15T15:30:41.900Z,10.13
2018-01-15T15:33:10.211Z,10.07
2018-01-15T15:35:37.771Z,10.70
2018-01-15T15:38:05.312Z,10.70
2018-01-15T15:40:32.868Z,12.10
2018-01-15T15:43:00.420Z,11.33
2018-01-15T15:45:27.979Z,13.20
2018-01-15T15:47:55.556Z,10.50
2018-01-15T15:50:23.107Z,11.43
2018-01-15T15:52:51.213Z,10.87
2018-01-15T15:55:18.834Z,12.13
2018-01-15T15:57:46.441Z,10.87
2018-01-15T16:00:14.145Z,10.60
2018-01-15T16:02:41.733Z,10.60
2018-01-15T16:05:10.038Z,11.60
2018-01-15T16:07:38.361Z,10.73
2018-01-15T16:10:06.050Z,11.57
2018-01-15T16:12:33.612Z,10.83
2018-01-15T16:15:01.917Z,10.50
2018-01-15T16:17:29.544Z,11.63
2018-01-15T16:19:57.104Z,9.83
2018-01-15T16:22:33.757Z,11.77
2018-01-15T16:25:02.276Z,11.20
2018-01-15T16:27:29.852Z,10.50
2018-01-15T16:29:58.186Z,11.73
2018-01-15T16:32:25.767Z,11.50
2018-01-15T16:34:53.568Z,11.10
2018-01-15T16:37:21.108Z,12.37
2018-01-15T16:39:49.159Z,11.17
2018-01-15T16:42:16.865Z,11.30
2018-01-15T16:44:44.436Z,10.40
2018-01-15T16:47:12.070Z,12.53
2018-01-15T16:49:39.654Z,12.03
2018-01-15T16:52:08.001Z,11.17
2018-01-15T16:54:35.964Z,10.60
2018-01-15T16:57:03.639Z,11.23
2018-01-15T16:59:31.453Z,11.90
2018-01-15T17:01:59.045Z,11.70
2018-01-15T17:04:27.175Z,12.30
2018-01-15T17:06:54.727Z,12.17
2018-01-15T17:09:22.271Z,11.40
2018-01-15T17:11:49.917Z,11.43
2018-01-15T17:14:17.466Z,13.27
2018-01-15T17:16:45.028Z,12.10
2018-01-15T17:19:13.454Z,10.90
2018-01-15T17:21:41.027Z,11.93
2018-01-15T17:24:09.326Z,12.87
2018-01-15T17:26:37.660Z,13.63
2018-01-15T17:29:05.195Z,12.80
2018-01-15T17:31:32.760Z,12.30
2018-01-15T17:34:00.314Z,12.80
2018-01-15T17:36:27.885Z,14.20
2018-01-15T17:38:55.437Z,12.63
2018-01-15T17:41:23.004Z,14.27
2018-01-15T17:43:50.610Z,14.10
2018-01-15T17:46:19.040Z,13.13
2018-01-15T17:48:46.657Z,13.97
2018-01-15T17:51:14.229Z,13.63
2018-01-15T17:53:41.820Z,13.57
2018-01-15T17:56:09.417Z,11.80
2018-01-15T17:58:36.996Z,14.10
2018-01-15T18:01:04.700Z,13.70
2018-01-15T18:03:32.268Z,12.40
2018-01-15T18:05:59.813Z,13.37
2018-01-15T18:08:27.372Z,12.87
2018-01-15T18:10:54.912Z,12.03
2018-01-15T18:13:22.484Z,13.07
2018-01-15T18:15:50.028Z,13.90
2018-01-15T18:18:17.650Z,11.30
2018-01-15T18:20:45.203Z,12.20
2018-01-15T18:23:13.514Z,12.00
2018-01-15T18:25:41.844Z,12.37
2018-01-15T18:28:09.388Z,12.77
2018-01-15T18:30:36.961Z,13.27
2018-01-15T18:33:04.499Z,12.90
2018-01-15T18:35:32.067Z,12.17
2018-01-15T18:37:59.607Z,11.97
2018-01-15T18:40:27.180Z,13.60
2018-01-15T18:42:54.722Z,13.30
2018-01-15T18:45:22.299Z,13.07
2018-01-15T18:47:49.841Z,13.90
2018-01-15T18:50:17.413Z,13.23
2018-01-15T18:52:44.962Z,12.87
2018-01-15T18:55:12.531Z,12.67
2018-01-15T18:57:40.087Z,13.40
2018-01-15T19:00:07.660Z,11.03
2018-01-15T19:02:35.210Z,12.33
2018-01-15T19:05:02.767Z,13.10
2018-01-15T19:07:30.340Z,12.87
2018-01-15T19:09:58.656Z,12.20
2018-01-15T19:12:26.259Z,13.60
2018-01-15T19:14:53.795Z,14.07
2018-01-15T19:17:21.360Z,13.33
2018-01-15T19:19:48.904Z,12.70
2018-01-15T19:22:16.477Z,13.53
2018-01-15T19:24:44.077Z,13.50
2018-01-15T19:27:11.638Z,12.80
2018-01-15T19:29:39.953Z,13.73
2018-01-15T19:32:07.511Z,13.10
2018-01-15T19:34:42.274Z,14.37
2018-01-15T19:37:10.625Z,13.40
2018-01-15T19:39:38.178Z,14.37
2018-01-15T19:42:06.613Z,12.87
2018-01-15T19:44:39.876Z,14.07
2018-01-15T19:47:13.974Z,12.93
2018-01-15T19:49:47.233Z,13.60
2018-01-15T19:52:21.147Z,12.73
2018-01-15T19:54:54.571Z,13.80
2018-01-15T19:57:27.868Z,12.63
2018-01-15T20:00:00.990Z,13.00
2018-01-15T20:02:34.273Z,13.00
2018-01-15T20:05:07.564Z,13.40
2018-01-15T20:07:40.864Z,15.03
2018-01-15T20:10:14.129Z,13.60
2018-01-15T20:12:41.676Z,13.00
2018-01-15T20:15:09.240Z,12.90
2018-01-15T20:17:37.576Z,13.80
2018-01-15T20:20:05.904Z,13.00
2018-01-15T20:22:33.449Z,13.40
2018-01-15T20:25:01.023Z,13.63
2018-01-15T20:27:28.576Z,13.70
2018-01-15T20:29:56.153Z,14.00
2018-01-15T20:32:23.709Z,13.40
2018-01-15T20:34:52.045Z,14.00
2018-01-15T20:37:19.593Z,13.53
2018-01-15T20:39:47.921Z,13.17
2018-01-15T20:42:15.461Z,13.33
2018-01-15T20:44:43.848Z,13.43
2018-01-15T20:47:11.395Z,14.17
2018-01-15T20:49:38.940Z,12.60
2018-01-15T20:52:07.316Z,14.53
2018-01-15T20:54:34.897Z,14.53
2018-01-15T20:57:02.492Z,13.90
2018-01-15T20:59:30.153Z,13.43
2018-01-15T21:01:57.706Z,13.50
2018-01-15T21:04:25.252Z,13.93
2018-01-15T21:06:52.818Z,12.77
2018-01-15T21:09:20.352Z,13.90
2018-01-15T21:11:47.913Z,13.50
2018-01-15T21:14:15.465Z,14.20
2018-01-15T21:16:43.116Z,13.80
2018-01-15T21:19:10.656Z,13.20
2018-01-15T21:21:38.271Z,13.27
2018-01-15T21:24:06.589Z,13.67
2018-01-15T21:26:34.149Z,12.13
2018-01-15T21:29:02.459Z,13.57
2018-01-15T21:31:30.792Z,13.90
2018-01-15T21:33:58.340Z,12.73
2018-01-15T21:36:26.654Z,12.70
2018-01-15T21:38:54.219Z,12.13
2018-01-15T21:41:22.527Z,12.70
2018-01-15T21:43:50.913Z,12.27
2018-01-15T21:46:18.456Z,13.53
2018-01-15T21:48:46.025Z,11.83
2018-01-15T21:51:13.573Z,14.53
2018-01-15T21:53:42.201Z,12.27
2018-01-15T21:56:09.749Z,13.63
2018-01-15T21:58:37.321Z,13.20
2018-01-15T22:01:04.885Z,12.17
2018-01-15T22:03:32.496Z,12.40
2018-01-15T22:06:00.837Z,11.37
2018-01-15T22:08:29.269Z,13.60
2018-01-15T22:10:56.828Z,13.50
2018-01-15T22:13:24.552Z,13.57
2018-01-15T22:15:52.128Z,13.20
2018-01-15T22:18:19.699Z,12.60
2018-01-15T22:20:47.273Z,13.03
2018-01-15T22:23:14.845Z,13.27
2018-01-15T22:25:42.400Z,12.40
2018-01-15T22:28:09.953Z,13.00
2018-01-15T22:30:37.525Z,12.53
2018-01-15T22:33:05.307Z,12.33
2018-01-15T22:35:32.877Z,13.00
2018-01-15T22:38:01.196Z,12.47
2018-01-15T22:40:28.784Z,12.30
2018-01-15T22:42:56.341Z,12.20
2018-01-15T22:45:24.678Z,12.27
2018-01-15T22:47:53.101Z,11.43
2018-01-15T22:50:21.434Z,12.03
2018-01-15T22:52:49.761Z,11.30
2018-01-15T22:55:17.320Z,12.60
2018-01-15T22:57:44.869Z,11.60
2018-01-15T23:00:12.437Z,11.80
2018-01-15T23:02:39.985Z,11.03
2018-01-15T23:05:09.527Z,10.90
2018-01-15T23:07:37.096Z,11.57
2018-01-15T23:10:05.408Z,10.70
2018-01-15T23:12:33.750Z,11.60
2018-01-15T23:15:01.298Z,12.57
2018-01-15T23:17:29.628Z,11.10
2018-01-15T23:19:57.222Z,11.90
2018-01-15T23:22:24.997Z,11.87
2018-01-15T23:24:52.544Z,12.60
2018-01-15T23:27:20.872Z,10.00
2018-01-15T23:29:48.413Z,11.13
2018-01-15T23:32:15.981Z,11.30
2018-01-15T23:34:43.533Z,11.57
2018-01-15T23:37:11.096Z,11.53
2018-01-15T23:39:38.636Z,11.97
2018-01-15T23:42:06.208Z,11.17
2018-01-15T23:44:33.753Z,12.30
2018-01-15T23:47:01.327Z,11.43
2018-01-15T23:49:29.645Z,11.83
2018-01-15T23:51:57.208Z,11.73
2018-01-15T23:54:40.388Z,10.40
2018-01-15T23:57:07.956Z,11.90
2018-01-15T23:59:35.501Z,12.10
